Prairie, Idaho
Current Conditions -  °F | °C
As of 10:58 PM on Wednesday 28 Jan 2015 (Local Time) from KMUO Reporting Station
Clear Clear  
Wind Chill: 24°   Ceiling: Unl
Heat Index: 32°   Visibility: 8mi
Dew Point: 31°   Wind: 9mph
Humidity: 96%   Direction: 120°ESE
Pressure: 30.39"   Gusts: NA
Location:  43.2609°N, 115.781°W
Report Text: KMUO 290558Z AUTO 12008KT 8SM CLR 00/00 A3039 RMK AO2 DZB0458 SLP313 P0000 60000 T00011004 10081 21004 52009
Loading
Personal Weather Stations






























Interactive Weather Map New forecast layout! Learn more

10-Day Weather Forecast

Advertisements
Track Severe Weather on mobile